createdAt,value
2023-03-12T00:01:30.100Z,3.5
2023-03-12T00:04:48.560Z,3.5
2023-03-12T00:05:53.644Z,3.5
2023-03-12T00:06:59.798Z,3.5
2023-03-12T00:08:05.989Z,3.6
2023-03-12T00:09:12.101Z,3.5
2023-03-12T00:10:18.217Z,3.5
2023-03-12T00:13:36.771Z,3.6
2023-03-12T00:14:42.803Z,3.5
2023-03-12T00:15:48.970Z,3.5
2023-03-12T00:16:55.094Z,3.5
2023-03-12T00:18:01.224Z,3.6
2023-03-12T00:21:19.646Z,3.6
2023-03-12T00:22:24.808Z,3.6
2023-03-12T00:24:37.088Z,3.6
2023-03-12T00:25:43.256Z,3.6
2023-03-12T00:26:49.384Z,3.6
2023-03-12T00:30:07.822Z,3.6
2023-03-12T00:31:13.968Z,3.6
2023-03-12T00:33:26.258Z,3.6
2023-03-12T00:34:32.440Z,3.6
2023-03-12T00:35:38.559Z,3.6
2023-03-12T00:36:43.724Z,3.6
2023-03-12T00:37:49.837Z,3.6
2023-03-12T00:40:02.127Z,3.6
2023-03-12T00:41:08.257Z,3.6
2023-03-12T00:43:20.551Z,3.7
2023-03-12T00:45:32.834Z,3.7
2023-03-12T00:46:38.980Z,3.7
2023-03-12T00:47:45.171Z,3.7
2023-03-12T00:48:51.331Z,3.6
2023-03-12T00:49:57.422Z,3.6
2023-03-12T00:51:02.583Z,3.6
2023-03-12T00:52:08.717Z,3.6
2023-03-12T00:53:14.858Z,3.6
2023-03-12T00:54:21.074Z,3.6
2023-03-12T00:56:33.320Z,3.6
2023-03-12T00:57:39.428Z,3.7
2023-03-12T00:58:45.660Z,3.7
2023-03-12T00:59:51.720Z,3.7
2023-03-12T01:02:04.021Z,3.7
2023-03-12T01:03:10.163Z,3.7
2023-03-12T01:04:16.296Z,3.7
2023-03-12T01:05:21.459Z,3.7
2023-03-12T01:06:27.600Z,3.7
2023-03-12T01:07:33.739Z,3.7
2023-03-12T01:08:39.891Z,3.7
2023-03-12T01:09:46.079Z,3.7
2023-03-12T01:10:52.178Z,3.7
2023-03-12T01:13:04.452Z,3.7
2023-03-12T01:14:10.600Z,3.7
2023-03-12T01:15:16.743Z,3.7
2023-03-12T01:16:22.940Z,3.7
2023-03-12T01:20:47.464Z,3.7
2023-03-12T01:24:04.945Z,3.8
2023-03-12T01:25:11.051Z,3.8
2023-03-12T01:26:17.228Z,3.8
2023-03-12T01:27:23.342Z,3.8
2023-03-12T01:29:35.626Z,3.8
2023-03-12T01:30:41.780Z,3.8
2023-03-12T01:36:12.497Z,3.7
2023-03-12T01:38:23.812Z,3.7
2023-03-12T01:39:29.934Z,3.7
2023-03-12T01:40:36.077Z,3.7
2023-03-12T01:42:48.365Z,3.7
2023-03-12T01:43:54.531Z,3.7
2023-03-12T01:45:00.661Z,3.7
2023-03-12T01:46:06.798Z,3.7
2023-03-12T01:47:12.939Z,3.7
2023-03-12T01:48:19.088Z,3.7
2023-03-12T01:49:25.223Z,3.7
2023-03-12T01:52:43.662Z,3.8
2023-03-12T01:53:48.891Z,3.7
2023-03-12T01:54:54.953Z,3.7
2023-03-12T01:56:01.098Z,3.7
2023-03-12T01:57:07.318Z,3.7
2023-03-12T01:58:13.391Z,3.7
2023-03-12T01:59:19.561Z,3.7
2023-03-12T02:00:25.701Z,3.7
2023-03-12T02:01:31.824Z,3.7
2023-03-12T02:02:37.974Z,3.7
2023-03-12T02:03:44.107Z,3.7
2023-03-12T02:04:50.253Z,3.8
2023-03-12T02:08:08.682Z,3.8
2023-03-12T02:10:19.983Z,3.8
2023-03-12T02:11:26.114Z,3.7
2023-03-12T02:13:38.426Z,3.7
2023-03-12T02:14:44.560Z,3.7
2023-03-12T02:15:50.703Z,3.7
2023-03-12T02:16:56.842Z,3.8
2023-03-12T02:18:02.979Z,3.7
2023-03-12T02:19:09.133Z,3.8
2023-03-12T02:20:15.285Z,3.8
2023-03-12T02:21:21.416Z,3.8
2023-03-12T02:22:27.560Z,3.8
2023-03-12T02:25:45.015Z,3.8
2023-03-12T02:26:51.164Z,3.8
2023-03-12T02:27:56.320Z,3.8
2023-03-12T02:29:02.506Z,3.7
2023-03-12T02:30:08.606Z,3.8
2023-03-12T02:31:14.855Z,3.8
2023-03-12T02:33:27.053Z,3.7
2023-03-12T02:34:33.172Z,3.8
2023-03-12T02:36:45.484Z,3.8
2023-03-12T02:37:51.628Z,3.8
2023-03-12T02:38:57.752Z,3.8
2023-03-12T02:41:10.051Z,3.8
2023-03-12T02:46:40.903Z,3.7
2023-03-12T02:48:52.085Z,3.7
2023-03-12T02:49:58.212Z,3.7
2023-03-12T02:53:16.631Z,3.7
2023-03-12T02:57:41.209Z,3.8
2023-03-12T02:59:53.606Z,3.8
2023-03-12T03:00:59.650Z,3.7
2023-03-12T03:02:04.819Z,3.8
2023-03-12T03:03:10.949Z,3.8
2023-03-12T03:04:17.091Z,3.8
2023-03-12T03:06:29.387Z,3.8
2023-03-12T03:07:35.525Z,3.8
2023-03-12T03:08:41.662Z,3.8
2023-03-12T03:09:47.832Z,3.8
2023-03-12T03:12:00.096Z,3.8
2023-03-12T03:18:36.955Z,3.8
2023-03-12T03:23:00.557Z,3.8
2023-03-12T03:24:06.686Z,3.8
2023-03-12T03:26:19.003Z,3.8
2023-03-12T03:27:25.122Z,3.7
2023-03-12T03:28:31.298Z,3.7
2023-03-12T03:32:55.844Z,3.7
2023-03-12T03:38:25.596Z,3.7
2023-03-12T03:39:31.911Z,3.7
2023-03-12T03:42:50.147Z,3.7
2023-03-12T03:43:56.287Z,3.7
2023-03-12T03:45:02.429Z,3.6
2023-03-12T03:47:14.721Z,3.6
2023-03-12T03:48:19.883Z,3.6
2023-03-12T03:49:26.024Z,3.7
2023-03-12T03:51:38.309Z,3.6
2023-03-12T03:52:44.453Z,3.6
2023-03-12T03:53:50.589Z,3.6
2023-03-12T03:54:56.756Z,3.7
2023-03-12T03:56:02.892Z,3.7
2023-03-12T03:58:15.179Z,3.7
2023-03-12T03:59:21.321Z,3.8
2023-03-12T04:00:27.457Z,3.8
2023-03-12T04:03:45.890Z,3.8
2023-03-12T04:07:03.330Z,3.9
2023-03-12T04:09:15.652Z,3.9
2023-03-12T04:12:34.107Z,3.9
2023-03-12T04:13:40.290Z,3.9
2023-03-12T04:15:52.490Z,3.9
2023-03-12T04:18:04.820Z,3.9
2023-03-12T04:22:28.368Z,3.9
2023-03-12T04:23:34.500Z,3.9
2023-03-12T04:24:40.639Z,3.9
2023-03-12T04:25:46.796Z,3.9
2023-03-12T04:26:52.936Z,3.9
2023-03-12T04:27:59.114Z,3.9
2023-03-12T04:29:05.260Z,3.9
2023-03-12T04:31:17.517Z,3.9
2023-03-12T04:32:23.653Z,3.9
2023-03-12T04:33:28.833Z,3.9
2023-03-12T04:37:53.382Z,3.9
2023-03-12T04:38:59.531Z,3.9
2023-03-12T04:40:05.679Z,3.9
2023-03-12T04:41:11.837Z,3.9
2023-03-12T04:42:17.961Z,3.9
2023-03-12T04:43:24.113Z,3.9
2023-03-12T04:45:36.392Z,3.9
2023-03-12T04:47:48.684Z,4
2023-03-12T04:48:53.858Z,4
2023-03-12T04:49:59.985Z,4
2023-03-12T04:53:18.420Z,4
2023-03-12T04:56:36.842Z,3.9
2023-03-12T04:58:49.166Z,3.9
2023-03-12T04:59:55.312Z,3.9
2023-03-12T05:01:01.426Z,3.9
2023-03-12T05:02:07.570Z,3.9
2023-03-12T05:03:12.733Z,4
2023-03-12T05:04:18.859Z,4
2023-03-12T05:05:25.023Z,4
2023-03-12T05:09:49.615Z,4
2023-03-12T05:12:01.882Z,4.1
2023-03-12T05:13:08.061Z,4.1
2023-03-12T05:14:14.165Z,4.1
2023-03-12T05:15:20.312Z,4.1
2023-03-12T05:16:26.452Z,4.1
2023-03-12T05:17:31.616Z,4.1
2023-03-12T05:18:37.767Z,4.1
2023-03-12T05:19:43.892Z,4.1
2023-03-12T05:20:50.043Z,4.1
2023-03-12T05:21:56.189Z,4.1
2023-03-12T05:23:02.333Z,4.1
2023-03-12T05:26:20.762Z,4.1
2023-03-12T05:27:26.903Z,4.1
2023-03-12T05:28:33.045Z,4.2
2023-03-12T05:29:39.184Z,4.1
2023-03-12T05:31:51.477Z,4.2
2023-03-12T05:32:56.645Z,4.2
2023-03-12T05:34:02.785Z,4.2
2023-03-12T05:35:08.924Z,4.2
2023-03-12T05:36:15.083Z,4.2
2023-03-12T05:37:21.206Z,4.2
2023-03-12T05:38:27.358Z,4.2
2023-03-12T05:43:58.075Z,4.1
2023-03-12T05:45:04.206Z,4.1
2023-03-12T05:46:10.356Z,4.1
2023-03-12T05:47:16.504Z,4.1
2023-03-12T05:49:27.803Z,4.1
2023-03-12T05:50:33.944Z,4.1
2023-03-12T05:51:40.084Z,4.2
2023-03-12T05:52:46.229Z,4.1
2023-03-12T05:53:52.375Z,4.2
2023-03-12T05:54:58.519Z,4.2
2023-03-12T06:01:35.390Z,4.3
2023-03-12T06:02:41.516Z,4.3
2023-03-12T06:08:11.255Z,4.4
2023-03-12T06:10:22.574Z,4.4
2023-03-12T06:11:27.721Z,4.4
2023-03-12T06:18:04.590Z,4.5
2023-03-12T06:19:10.737Z,4.5
2023-03-12T06:22:29.178Z,4.5
2023-03-12T06:23:35.307Z,4.5
2023-03-12T06:24:41.447Z,4.5
2023-03-12T06:25:46.609Z,4.5
2023-03-12T06:26:52.753Z,4.5
2023-03-12T06:27:58.898Z,4.5
2023-03-12T06:29:05.039Z,4.5
2023-03-12T06:36:48.066Z,4.7
2023-03-12T06:37:54.188Z,4.7
2023-03-12T06:39:00.326Z,4.7
2023-03-12T06:41:11.629Z,4.8
2023-03-12T06:42:17.782Z,4.8
2023-03-12T06:44:30.062Z,4.9
2023-03-12T06:45:36.202Z,4.9
2023-03-12T06:48:54.669Z,5
2023-03-12T06:50:00.782Z,5
2023-03-12T06:51:06.952Z,5
2023-03-12T06:52:13.070Z,5
2023-03-12T06:53:19.209Z,5.1
2023-03-12T06:54:24.381Z,5.1
2023-03-12T06:55:30.515Z,5.1
2023-03-12T06:56:36.649Z,5.2
2023-03-12T06:57:42.798Z,5.2
2023-03-12T06:58:48.951Z,5.2
2023-03-12T06:59:55.093Z,5.2
2023-03-12T07:01:01.234Z,5.2
2023-03-12T07:03:13.520Z,5.3
2023-03-12T07:05:25.810Z,5.3
2023-03-12T07:06:31.991Z,5.3
2023-03-12T07:07:38.099Z,5.3
2023-03-12T07:09:50.380Z,5.3
2023-03-12T07:10:55.548Z,5.3
2023-03-12T07:12:01.686Z,5.3
2023-03-12T07:13:07.828Z,5.3
2023-03-12T07:14:13.976Z,5.3
2023-03-12T07:15:20.120Z,5.3
2023-03-12T07:16:26.261Z,5.3
2023-03-12T07:17:32.543Z,5.3
2023-03-12T07:21:56.982Z,5.4
2023-03-12T07:23:03.148Z,5.4
2023-03-12T07:24:09.281Z,5.5
2023-03-12T07:25:15.459Z,5.5
2023-03-12T07:26:20.566Z,5.6
2023-03-12T07:28:32.896Z,5.6
2023-03-12T07:30:45.177Z,5.5
2023-03-12T07:32:57.443Z,5.6
2023-03-12T07:34:03.621Z,5.6
2023-03-12T07:38:28.144Z,5.6
2023-03-12T07:39:34.481Z,5.6
2023-03-12T07:41:45.804Z,5.6
2023-03-12T07:43:58.008Z,5.6
2023-03-12T07:47:16.316Z,5.6
2023-03-12T07:48:22.519Z,5.7
2023-03-12T07:49:28.600Z,5.7
2023-03-12T07:51:40.899Z,5.7
2023-03-12T07:56:05.461Z,5.7
2023-03-12T07:58:16.954Z,5.8
2023-03-12T07:59:22.995Z,5.8
2023-03-12T08:00:29.053Z,5.8
2023-03-12T08:03:47.479Z,5.9
2023-03-12T08:04:53.619Z,5.9
2023-03-12T08:05:59.913Z,5.9
2023-03-12T08:08:12.053Z,5.9
2023-03-12T08:09:18.199Z,5.9
2023-03-12T08:11:30.477Z,5.9
2023-03-12T08:12:35.636Z,6
2023-03-12T08:17:00.216Z,6.1
2023-03-12T08:19:12.497Z,6.1
2023-03-12T08:20:18.640Z,6.1
2023-03-12T08:22:30.941Z,6.2
2023-03-12T08:28:01.730Z,6.3
2023-03-12T08:31:19.094Z,6.4
2023-03-12T08:32:25.234Z,6.4
2023-03-12T08:33:31.379Z,6.4
2023-03-12T08:36:49.804Z,6.4
2023-03-12T08:40:08.244Z,6.5
2023-03-12T08:44:33.033Z,6.5
2023-03-12T08:48:56.597Z,6.5
2023-03-12T08:53:21.094Z,6.5
2023-03-12T08:54:27.328Z,6.5
2023-03-12T08:57:45.773Z,6.5
2023-03-12T09:09:53.248Z,6.6
2023-03-12T09:19:47.568Z,6.5
2023-03-12T09:23:05.993Z,6.6
2023-03-12T09:26:24.425Z,6.6
2023-03-12T09:29:42.900Z,6.6
2023-03-12T09:39:37.151Z,7
2023-03-12T09:42:55.712Z,7
2023-03-12T09:46:14.065Z,7.1
2023-03-12T09:52:49.881Z,7.3
2023-03-12T09:56:07.410Z,7.4
2023-03-12T09:59:25.749Z,7.4
2023-03-12T10:02:43.216Z,7.6
2023-03-12T10:09:19.095Z,7.6
2023-03-12T10:12:36.541Z,7.4
2023-03-12T10:15:54.981Z,7.5
2023-03-12T10:19:12.443Z,7.6
2023-03-12T10:25:49.287Z,7.7
2023-03-12T10:29:07.710Z,7.7
2023-03-12T10:30:13.884Z,7.8
2023-03-12T10:35:43.613Z,7.7
2023-03-12T10:42:19.463Z,7.8
2023-03-12T10:48:56.353Z,7.9
2023-03-12T10:52:14.758Z,7.8
2023-03-12T10:58:51.622Z,8.6
2023-03-12T11:05:27.513Z,8.9
2023-03-12T11:08:45.972Z,9
2023-03-12T11:15:22.795Z,9.7
2023-03-12T11:20:53.517Z,12.3
2023-03-12T11:25:18.086Z,12.7
2023-03-12T11:31:53.976Z,12.6
2023-03-12T11:33:00.136Z,12.3
2023-03-12T11:38:29.853Z,11.1
2023-03-12T11:41:47.293Z,11.8
2023-03-12T11:46:10.888Z,11.3
2023-03-12T11:48:22.204Z,10.8
2023-03-12T11:58:16.534Z,9.7
2023-03-12T12:03:46.261Z,9.5
2023-03-12T12:08:09.872Z,9.8
2023-03-12T12:13:40.660Z,10.7
2023-03-12T12:14:46.702Z,10.8
2023-03-12T12:15:52.840Z,10.9
2023-03-12T12:22:28.739Z,10.9
2023-03-12T12:23:33.893Z,11
2023-03-12T12:24:40.042Z,11.1
2023-03-12T12:25:46.225Z,11.2
2023-03-12T12:29:04.605Z,11.7
2023-03-12T12:31:16.917Z,11.9
2023-03-12T12:35:41.452Z,12.1
2023-03-12T12:37:53.817Z,12.1
2023-03-12T12:38:58.907Z,12
2023-03-12T12:40:05.060Z,12.1
2023-03-12T12:41:11.198Z,12
2023-03-12T12:42:17.392Z,12
2023-03-12T12:44:29.641Z,12.3
2023-03-12T12:45:35.803Z,12.3
2023-03-12T12:46:41.903Z,12.4
2023-03-12T12:47:48.122Z,12.5
2023-03-12T12:48:54.194Z,12.5
2023-03-12T12:50:00.328Z,12.6
2023-03-12T12:52:12.643Z,12.7
2023-03-12T12:53:17.781Z,12.8
2023-03-12T12:54:23.931Z,12.9
2023-03-12T12:55:30.072Z,12.8
2023-03-12T12:56:36.243Z,12.8
2023-03-12T12:57:42.352Z,13
2023-03-12T12:58:48.492Z,13
2023-03-12T12:59:54.640Z,13.1
2023-03-12T13:01:00.768Z,13.2
2023-03-12T13:02:07.035Z,13.4
2023-03-12T13:03:13.078Z,13.6
2023-03-12T13:04:19.214Z,13.7
2023-03-12T13:06:31.493Z,13.5
2023-03-12T13:08:42.822Z,13.5
2023-03-12T13:10:55.087Z,12.9
2023-03-12T13:12:01.221Z,12.6
2023-03-12T13:14:13.515Z,12.1
2023-03-12T13:17:31.949Z,11.5
2023-03-12T13:18:38.094Z,11.4
2023-03-12T13:21:56.509Z,11.5
2023-03-12T13:23:01.694Z,11.6
2023-03-12T13:25:14.028Z,11.7
2023-03-12T13:26:20.109Z,11.7
2023-03-12T13:27:26.260Z,11.7
2023-03-12T13:29:38.564Z,11.9
2023-03-12T13:30:44.784Z,11.9
2023-03-12T13:31:50.846Z,11.8
2023-03-12T13:32:56.977Z,11.9
2023-03-12T13:34:03.186Z,11.8
2023-03-12T13:35:09.253Z,11.8
2023-03-12T13:36:15.393Z,11.8
2023-03-12T13:38:26.691Z,11.7
2023-03-12T13:41:45.159Z,11.5
2023-03-12T13:42:51.265Z,11.4
2023-03-12T13:43:57.439Z,11.3
2023-03-12T13:46:09.698Z,11.2
2023-03-12T13:47:15.845Z,11.3
2023-03-12T13:49:28.158Z,11.4
2023-03-12T13:50:34.276Z,11.4
2023-03-12T13:52:45.572Z,11.8
2023-03-12T13:53:51.718Z,11.9
2023-03-12T13:54:57.848Z,11.8
2023-03-12T13:56:03.997Z,11.7
2023-03-12T13:58:16.425Z,11.6
2023-03-12T13:59:22.436Z,11.5
2023-03-12T14:00:28.712Z,11.5
2023-03-12T14:01:34.860Z,11.4
2023-03-12T14:02:40.998Z,11.4
2023-03-12T14:03:47.184Z,11.3
2023-03-12T14:05:59.532Z,11.1
2023-03-12T14:07:04.588Z,11
2023-03-12T14:08:10.737Z,10.9
2023-03-12T14:09:16.875Z,10.8
2023-03-12T14:10:23.014Z,10.7
2023-03-12T14:11:29.148Z,10.6
2023-03-12T14:12:35.402Z,10.7
2023-03-12T14:14:47.597Z,10.9
2023-03-12T14:15:53.728Z,11
2023-03-12T14:16:59.909Z,11.1
2023-03-12T14:18:06.080Z,11.1
2023-03-12T14:19:12.165Z,11.2
2023-03-12T14:20:18.305Z,11.3
2023-03-12T14:21:23.468Z,11.4
2023-03-12T14:22:29.609Z,11.6
2023-03-12T14:23:35.752Z,11.7
2023-03-12T14:24:41.893Z,11.9
2023-03-12T14:25:48.041Z,12
2023-03-12T14:26:54.183Z,12
2023-03-12T14:28:00.345Z,12
2023-03-12T14:29:05.500Z,12
2023-03-12T14:31:16.802Z,11.8
2023-03-12T14:32:22.940Z,11.8
2023-03-12T14:33:29.092Z,11.8
2023-03-12T14:34:35.221Z,11.8
2023-03-12T14:35:41.374Z,11.7
2023-03-12T14:36:47.519Z,11.6
2023-03-12T14:37:53.649Z,11.6
2023-03-12T14:38:59.805Z,11.5
2023-03-12T14:40:05.937Z,11.5
2023-03-12T14:41:12.090Z,11.7
2023-03-12T14:42:17.313Z,11.7
2023-03-12T14:43:22.413Z,11.7
2023-03-12T14:45:34.711Z,11.8
2023-03-12T14:48:53.126Z,11.8
2023-03-12T14:49:59.286Z,11.8
2023-03-12T14:51:05.414Z,11.7
2023-03-12T14:52:11.572Z,11.7
2023-03-12T14:53:17.709Z,11.6
2023-03-12T14:54:23.862Z,11.6
2023-03-12T14:56:36.146Z,11.5
2023-03-12T14:58:47.448Z,11.4
2023-03-12T14:59:52.600Z,11.4
2023-03-12T15:00:57.778Z,11.4
2023-03-12T15:04:16.186Z,11.7
2023-03-12T15:05:22.338Z,11.9
2023-03-12T15:06:28.563Z,11.9
2023-03-12T15:07:34.655Z,12
2023-03-12T15:08:40.760Z,12
2023-03-12T15:09:46.904Z,11.9
2023-03-12T15:10:53.050Z,11.9
2023-03-12T15:11:59.176Z,11.8
2023-03-12T15:13:05.337Z,11.8
2023-03-12T15:14:11.485Z,11.7
2023-03-12T15:15:16.634Z,11.7
2023-03-12T15:16:22.794Z,11.6
2023-03-12T15:17:28.922Z,11.6
2023-03-12T15:18:35.073Z,11.7
2023-03-12T15:21:53.493Z,11.6
2023-03-12T15:22:59.630Z,11.6
2023-03-12T15:24:05.869Z,11.5
2023-03-12T15:25:11.928Z,11.5
2023-03-12T15:26:18.098Z,11.4
2023-03-12T15:29:36.501Z,11.3
2023-03-12T15:31:47.808Z,11.2
2023-03-12T15:32:53.947Z,11.2
2023-03-12T15:35:06.241Z,11.2
2023-03-12T15:37:18.513Z,11.2
2023-03-12T15:38:24.678Z,11.2
2023-03-12T15:39:30.803Z,11.2
2023-03-12T15:40:37.014Z,11.2
2023-03-12T15:41:43.087Z,11.2
2023-03-12T15:42:49.235Z,11.2
2023-03-12T15:43:55.381Z,11.2
2023-03-12T15:45:00.551Z,11.2
2023-03-12T15:46:06.708Z,11.2
2023-03-12T15:48:18.967Z,11.2
2023-03-12T15:49:25.158Z,11.2
2023-03-12T15:51:37.435Z,11.3
2023-03-12T15:54:55.822Z,11.3
2023-03-12T15:56:01.963Z,11.3
2023-03-12T15:57:08.158Z,11.3
2023-03-12T15:59:20.393Z,11.4
2023-03-12T16:00:25.643Z,11.4
2023-03-12T16:01:31.693Z,11.5
2023-03-12T16:02:37.833Z,11.5
2023-03-12T16:03:43.990Z,11.5
2023-03-12T16:05:55.308Z,11.5
2023-03-12T16:07:00.464Z,11.5
2023-03-12T16:10:18.892Z,11.4
2023-03-12T16:11:25.032Z,11.4
2023-03-12T16:12:31.341Z,11.4
2023-03-12T16:13:37.336Z,11.4
2023-03-12T16:14:43.597Z,11.4
2023-03-12T16:15:49.615Z,11.3
2023-03-12T16:16:55.752Z,11.4
2023-03-12T16:19:08.032Z,11.3
2023-03-12T16:20:14.179Z,11.3
2023-03-12T16:21:19.359Z,11.3
2023-03-12T16:22:25.481Z,11.3
2023-03-12T16:24:37.772Z,11.2
2023-03-12T16:26:50.062Z,11.2
2023-03-12T16:27:56.302Z,11.2
2023-03-12T16:29:02.532Z,11.2
2023-03-12T16:30:08.497Z,11.2
2023-03-12T16:31:14.676Z,11.2
2023-03-12T16:32:20.768Z,11.2
2023-03-12T16:33:26.931Z,11.1
2023-03-12T16:34:33.145Z,11.1
2023-03-12T16:35:38.217Z,11.1
2023-03-12T16:36:44.521Z,11.1
2023-03-12T16:37:50.721Z,11.1
2023-03-12T16:38:56.660Z,11
2023-03-12T16:40:02.790Z,11
2023-03-12T16:41:08.948Z,11
2023-03-12T16:44:27.474Z,10.9
2023-03-12T16:45:33.530Z,10.9
2023-03-12T16:47:45.792Z,10.8
2023-03-12T16:48:51.953Z,10.8
2023-03-12T16:49:57.103Z,10.8
2023-03-12T16:51:03.338Z,10.8
2023-03-12T16:52:09.439Z,10.7
2023-03-12T16:54:21.694Z,10.7
2023-03-12T16:55:27.850Z,10.7
2023-03-12T16:56:34.024Z,10.7
2023-03-12T16:57:40.212Z,10.7
2023-03-12T16:59:52.386Z,10.6
2023-03-12T17:00:58.564Z,10.7
2023-03-12T17:02:04.692Z,10.6
2023-03-12T17:03:10.862Z,10.7
2023-03-12T17:05:22.109Z,10.6
2023-03-12T17:06:28.255Z,10.6
2023-03-12T17:07:34.412Z,10.6
2023-03-12T17:08:40.536Z,10.6
2023-03-12T17:09:46.705Z,10.5
2023-03-12T17:10:52.882Z,10.5
2023-03-12T17:11:58.978Z,10.5
2023-03-12T17:13:05.154Z,10.4
2023-03-12T17:14:11.259Z,10.4
2023-03-12T17:16:23.573Z,10.3
2023-03-12T17:17:29.704Z,10.3
2023-03-12T17:18:35.835Z,10.3
2023-03-12T17:19:40.991Z,10.3
2023-03-12T17:20:47.127Z,10.3
2023-03-12T17:21:53.274Z,10.3
2023-03-12T17:22:59.418Z,10.3
2023-03-12T17:24:05.567Z,10.3
2023-03-12T17:25:11.718Z,10.3
2023-03-12T17:26:17.848Z,10.3
2023-03-12T17:27:23.989Z,10.3
2023-03-12T17:28:29.227Z,10.2
2023-03-12T17:29:34.342Z,10.2
2023-03-12T17:30:40.514Z,10.2
2023-03-12T17:33:58.903Z,10.3
2023-03-12T17:35:05.150Z,10.4
2023-03-12T17:36:11.189Z,10.4
2023-03-12T17:37:17.326Z,10.4
2023-03-12T17:38:23.471Z,10.4
2023-03-12T17:40:35.821Z,10.3
2023-03-12T17:41:42.056Z,10.2
2023-03-12T17:42:48.036Z,10.2
2023-03-12T17:43:53.209Z,10.2
2023-03-12T17:44:58.380Z,10.1
2023-03-12T17:46:04.514Z,10
2023-03-12T17:47:10.659Z,10
2023-03-12T17:50:29.089Z,9.9
2023-03-12T17:51:35.319Z,10
2023-03-12T17:52:41.378Z,10
2023-03-12T17:53:47.525Z,10
2023-03-12T17:54:53.672Z,9.9
2023-03-12T17:55:59.890Z,9.9
2023-03-12T17:57:05.949Z,9.8
2023-03-12T17:58:12.117Z,9.8
2023-03-12T17:59:17.256Z,9.7
2023-03-12T18:01:29.643Z,9.8
2023-03-12T18:02:35.742Z,9.7
2023-03-12T18:03:41.823Z,9.7
2023-03-12T18:05:54.115Z,9.7
2023-03-12T18:07:00.265Z,9.7
2023-03-12T18:08:06.398Z,9.7
2023-03-12T18:09:12.539Z,9.7
2023-03-12T18:10:18.709Z,9.7
2023-03-12T18:11:24.853Z,9.7
2023-03-12T18:13:37.110Z,9.5
2023-03-12T18:14:42.277Z,9.5
2023-03-12T18:16:54.615Z,9.5
2023-03-12T18:18:00.707Z,9.5
2023-03-12T18:19:06.930Z,9.5
2023-03-12T18:20:13.010Z,9.4
2023-03-12T18:24:37.558Z,9.3
2023-03-12T18:25:43.722Z,9.3
2023-03-12T18:26:49.848Z,9.4
2023-03-12T18:27:55.987Z,9.3
2023-03-12T18:29:01.152Z,9.3
2023-03-12T18:30:07.290Z,9.2
2023-03-12T18:31:13.438Z,9.2
2023-03-12T18:34:31.873Z,9
2023-03-12T18:35:38.022Z,9
2023-03-12T18:36:44.163Z,9
2023-03-12T18:38:56.437Z,8.9
2023-03-12T18:40:02.585Z,8.9
2023-03-12T18:41:08.726Z,8.9
2023-03-12T18:42:14.872Z,8.8
2023-03-12T18:43:21.008Z,8.8
2023-03-12T18:44:26.187Z,8.8
2023-03-12T18:47:44.610Z,8.8
2023-03-12T18:49:56.911Z,8.7
2023-03-12T18:51:03.049Z,8.7
2023-03-12T18:53:15.321Z,8.6
2023-03-12T18:55:27.606Z,8.6
2023-03-12T18:57:39.895Z,8.6
2023-03-12T18:58:46.060Z,8.6
2023-03-12T18:59:51.197Z,8.5
2023-03-12T19:00:57.418Z,8.5
2023-03-12T19:02:03.475Z,8.5
2023-03-12T19:03:09.634Z,8.5
2023-03-12T19:04:15.771Z,8.5
2023-03-12T19:05:21.971Z,8.5
2023-03-12T19:06:28.092Z,8.5
2023-03-12T19:07:34.199Z,8.5
2023-03-12T19:08:40.348Z,8.4
2023-03-12T19:09:46.507Z,8.4
2023-03-12T19:11:58.766Z,8.3
2023-03-12T19:13:04.931Z,8.3
2023-03-12T19:14:10.100Z,8.3
2023-03-12T19:15:16.281Z,8.2
2023-03-12T19:16:22.407Z,8.2
2023-03-12T19:17:28.693Z,8.1
2023-03-12T19:19:40.949Z,8
2023-03-12T19:21:53.132Z,7.9
2023-03-12T19:24:05.375Z,7.7
2023-03-12T19:25:11.563Z,7.7
2023-03-12T19:26:17.671Z,7.7
2023-03-12T19:28:30.002Z,7.6
2023-03-12T19:29:35.111Z,7.5
2023-03-12T19:30:41.241Z,7.5
2023-03-12T19:31:47.497Z,7.4
2023-03-12T19:33:59.683Z,7.4
2023-03-12T19:35:05.814Z,7.3
2023-03-12T19:36:11.978Z,7.3
2023-03-12T19:37:18.090Z,7.3
2023-03-12T19:38:24.268Z,7.3
2023-03-12T19:40:36.648Z,7.2
2023-03-12T19:41:42.711Z,7.2
2023-03-12T19:45:01.102Z,7.2
2023-03-12T19:46:06.324Z,7.2
2023-03-12T19:48:18.686Z,7.1
2023-03-12T19:49:23.846Z,7.1
2023-03-12T19:50:29.959Z,7.1
2023-03-12T19:52:42.178Z,7.1
2023-03-12T19:53:48.378Z,7.1
2023-03-12T19:54:54.422Z,7
2023-03-12T19:57:06.782Z,7
2023-03-12T19:58:12.914Z,7
2023-03-12T19:59:19.086Z,7
2023-03-12T20:01:31.431Z,7.1
2023-03-12T20:02:37.564Z,7.1
2023-03-12T20:03:43.650Z,7.1
2023-03-12T20:04:48.917Z,7.1
2023-03-12T20:07:01.021Z,7.1
2023-03-12T20:08:07.165Z,7.1
2023-03-12T20:09:13.395Z,7
2023-03-12T20:10:19.467Z,7
2023-03-12T20:11:25.633Z,7
2023-03-12T20:12:31.809Z,6.9
2023-03-12T20:13:37.922Z,6.9
2023-03-12T20:18:02.446Z,6.8
2023-03-12T20:19:07.737Z,6.8
2023-03-12T20:20:13.801Z,6.8
2023-03-12T20:21:19.895Z,6.8
2023-03-12T20:23:32.300Z,6.7
2023-03-12T20:24:38.452Z,6.7
2023-03-12T20:25:44.470Z,6.6
2023-03-12T20:27:56.756Z,6.6
2023-03-12T20:29:02.903Z,6.6
2023-03-12T20:30:09.112Z,6.6
2023-03-12T20:31:15.310Z,6.5
2023-03-12T20:34:33.651Z,6.6
2023-03-12T20:35:38.917Z,6.6
2023-03-12T20:36:44.974Z,6.6
2023-03-12T20:37:51.072Z,6.5
2023-03-12T20:38:57.212Z,6.5
2023-03-12T20:40:03.357Z,6.5
2023-03-12T20:42:15.656Z,6.4
2023-03-12T20:43:21.805Z,6.4
2023-03-12T20:45:34.089Z,6.3
2023-03-12T20:46:40.212Z,6.3
2023-03-12T20:47:46.351Z,6.3
2023-03-12T20:48:52.567Z,6.3
2023-03-12T20:51:03.816Z,6.3
2023-03-12T20:53:16.260Z,6.3
2023-03-12T20:54:22.355Z,6.3
2023-03-12T20:55:28.502Z,6.3
2023-03-12T20:56:34.644Z,6.4
2023-03-12T20:57:40.812Z,6.4
2023-03-12T20:58:46.968Z,6.4
2023-03-12T20:59:53.073Z,6.4
2023-03-12T21:00:59.220Z,6.5
2023-03-12T21:02:05.358Z,6.5
2023-03-12T21:03:11.510Z,6.5
2023-03-12T21:04:16.669Z,6.5
2023-03-12T21:05:22.811Z,6.6
2023-03-12T21:08:41.245Z,6.6
2023-03-12T21:09:47.455Z,6.6
2023-03-12T21:11:59.700Z,6.6
2023-03-12T21:13:05.826Z,6.6
2023-03-12T21:14:11.965Z,6.6
2023-03-12T21:15:18.091Z,6.6
2023-03-12T21:16:24.248Z,6.7
2023-03-12T21:17:30.414Z,6.7
2023-03-12T21:18:36.532Z,6.7
2023-03-12T21:19:42.680Z,6.7
2023-03-12T21:20:47.901Z,6.7
2023-03-12T21:24:06.269Z,6.7
2023-03-12T21:25:12.413Z,6.7
2023-03-12T21:26:18.550Z,6.7
2023-03-12T21:27:24.696Z,6.7
2023-03-12T21:28:30.845Z,6.7
2023-03-12T21:29:37.189Z,6.7
2023-03-12T21:30:43.305Z,6.7
2023-03-12T21:31:49.413Z,6.7
2023-03-12T21:32:55.527Z,6.6
2023-03-12T21:34:01.715Z,6.6
2023-03-12T21:35:07.767Z,6.6
2023-03-12T21:36:13.023Z,6.6
2023-03-12T21:37:19.022Z,6.6
2023-03-12T21:42:49.728Z,6.5
2023-03-12T21:43:55.886Z,6.6
2023-03-12T21:45:02.017Z,6.5
2023-03-12T21:46:08.166Z,6.5
2023-03-12T21:47:14.301Z,6.5
2023-03-12T21:49:26.628Z,6.5
2023-03-12T21:51:37.990Z,6.5
2023-03-12T21:52:44.119Z,6.5
2023-03-12T21:53:50.294Z,6.5
2023-03-12T21:54:56.423Z,6.5
2023-03-12T21:58:14.739Z,6.5
2023-03-12T21:59:20.920Z,6.6
2023-03-12T22:00:27.050Z,6.5
2023-03-12T22:01:33.274Z,6.5
2023-03-12T22:02:39.430Z,6.5
2023-03-12T22:03:45.551Z,6.6
2023-03-12T22:04:51.656Z,6.6
2023-03-12T22:05:56.814Z,6.6
2023-03-12T22:07:02.997Z,6.6
2023-03-12T22:08:09.050Z,6.6
2023-03-12T22:09:15.187Z,6.5
2023-03-12T22:13:39.788Z,6.5
2023-03-12T22:14:45.923Z,6.5
2023-03-12T22:16:58.243Z,6.5
2023-03-12T22:18:04.462Z,6.5
2023-03-12T22:19:10.516Z,6.5
2023-03-12T22:21:21.789Z,6.5
2023-03-12T22:22:27.919Z,6.5
2023-03-12T22:23:34.140Z,6.5
2023-03-12T22:24:40.231Z,6.5
2023-03-12T22:25:46.343Z,6.6
2023-03-12T22:26:52.549Z,6.6
2023-03-12T22:27:58.642Z,6.6
2023-03-12T22:32:23.237Z,6.6
2023-03-12T22:34:35.564Z,6.6
2023-03-12T22:35:40.744Z,6.7
2023-03-12T22:36:46.845Z,6.7
2023-03-12T22:37:53.054Z,6.6
2023-03-12T22:38:59.203Z,6.6
2023-03-12T22:41:11.363Z,6.6
2023-03-12T22:42:17.531Z,6.6
2023-03-12T22:43:23.676Z,6.5
2023-03-12T22:44:29.827Z,6.5
2023-03-12T22:46:42.093Z,6.5
2023-03-12T22:48:54.377Z,6.5
2023-03-12T22:49:59.541Z,6.5
2023-03-12T22:51:05.822Z,6.5
2023-03-12T22:52:11.864Z,6.5
2023-03-12T22:54:24.111Z,6.5
2023-03-12T22:55:30.242Z,6.5
2023-03-12T22:56:36.483Z,6.5
2023-03-12T22:58:48.672Z,6.5
2023-03-12T22:59:54.829Z,6.5
2023-03-12T23:04:19.393Z,6.6
2023-03-12T23:05:24.549Z,6.6
2023-03-12T23:06:30.722Z,6.7
2023-03-12T23:07:36.880Z,6.7
2023-03-12T23:10:55.266Z,7
2023-03-12T23:12:01.461Z,7
2023-03-12T23:13:07.576Z,7
2023-03-12T23:14:13.705Z,7
2023-03-12T23:15:19.915Z,7
2023-03-12T23:16:26.007Z,7
2023-03-12T23:17:32.131Z,7.1
2023-03-12T23:20:50.555Z,7.1
2023-03-12T23:21:55.742Z,7.1
2023-03-12T23:23:01.858Z,7.1
2023-03-12T23:24:08.014Z,7.1
2023-03-12T23:25:14.155Z,7.1
2023-03-12T23:26:20.305Z,7.1
2023-03-12T23:27:26.435Z,7
2023-03-12T23:28:32.575Z,7.1
2023-03-12T23:29:38.724Z,7
2023-03-12T23:30:43.870Z,7.1
2023-03-12T23:31:50.060Z,7.1
2023-03-12T23:32:56.177Z,7
2023-03-12T23:34:02.328Z,7
2023-03-12T23:36:14.604Z,6.9
2023-03-12T23:37:20.742Z,6.9
2023-03-12T23:38:26.897Z,6.8
2023-03-12T23:39:33.023Z,6.8
2023-03-12T23:40:39.177Z,6.8
2023-03-12T23:41:45.322Z,6.8
2023-03-12T23:43:57.606Z,6.7
2023-03-12T23:45:03.743Z,6.7
2023-03-12T23:48:22.193Z,6.7